Startpagina
METAR-TAF:

METAR-TAF

Vliegvelden :

Lissabon, Portugal

Aeroporto da Portela

breedte: 38-46N, lengte: 009-08W, hoogte: 114 m

Actueel weer

Dit bericht is 46 minuten geleden gemaakt, om 18:30 UTC
Wind 10 kt uit het noorden
Temperatuur 17°C
Vochtigheid 63%
Druk 1027 hPa
Zicht 10 km of meer
geen wolken onder 1500 m en geen cumulonimbus

METAR: LPPT 211830Z 35010KT CAVOK 17/10 Q1027

Tijdstip: 20:16 (19:16 UTC)

Verwachting

Dit bericht is 2 uur en het 6 minuten geleden gemaakt, om 17:10 UTC
Verwachting geldig van 21 om 18 UTC tot 22 om 24 UTC
Wind 12 kt uit het noorden
Zicht 10 km of meer
geen wolken onder 1500 m en geen cumulonimbus
Wijzigt naar
van 22 om 09 UTC tot 22 om 12 UTC
Wind 10 kt uit het noordoosten
Wijzigt naar
van 22 om 16 UTC tot 22 om 19 UTC
Wind 10 kt uit het noordnoordwesten

TAF: LPPT 211710Z 2118/2224 35012KT CAVOK BECMG 2209/2212 04010KT BECMG 2216/2219 33010KT

Waarnemingen en weersverwachtingen van meer dan 4000 vliegvelden (METAR en TAF).

De beschikbare stations zijn de gele en rode punten op de kaart.

Ga met uw muis naar het station om de naam te zien.

Klik dan om waarnemingen en weersverwachtingen te zien.

kaart wijzigen: klik op de groene knoppen met een zwart kruis om in te zoomen, op de groene knop met een streepje om uit te zoomen of op de groene pijlen voor aangrenzende kaarten.


METAR-TAF: